sensor_id;sensor_type;location;lat;lon;timestamp;P1;durP1;ratioP1;P2;durP2;ratioP2
34505;SDS011;20748;42.632;23.198;2023-06-10T00:00:33;5.00;;;3.47;;
34505;SDS011;20748;42.632;23.198;2023-06-10T00:03:06;6.53;;;3.70;;
34505;SDS011;20748;42.632;23.198;2023-06-10T00:05:39;5.55;;;3.67;;
34505;SDS011;20748;42.632;23.198;2023-06-10T00:08:12;9.68;;;3.50;;
34505;SDS011;20748;42.632;23.198;2023-06-10T00:10:47;4.65;;;2.80;;
34505;SDS011;20748;42.632;23.198;2023-06-10T00:13:19;3.05;;;2.10;;
34505;SDS011;20748;42.632;23.198;2023-06-10T00:15:52;4.72;;;2.70;;
34505;SDS011;20748;42.632;23.198;2023-06-10T00:18:25;5.55;;;2.88;;
34505;SDS011;20748;42.632;23.198;2023-06-10T00:20:58;5.78;;;3.17;;
34505;SDS011;20748;42.632;23.198;2023-06-10T00:23:35;4.20;;;2.72;;
34505;SDS011;20748;42.632;23.198;2023-06-10T00:26:09;7.70;;;2.80;;
34505;SDS011;20748;42.632;23.198;2023-06-10T00:28:42;5.65;;;3.33;;
34505;SDS011;20748;42.632;23.198;2023-06-10T00:31:17;5.32;;;2.80;;
34505;SDS011;20748;42.632;23.198;2023-06-10T00:33:49;4.32;;;2.88;;
34505;SDS011;20748;42.632;23.198;2023-06-10T00:36:22;4.45;;;2.72;;
34505;SDS011;20748;42.632;23.198;2023-06-10T00:38:54;5.65;;;2.80;;
34505;SDS011;20748;42.632;23.198;2023-06-10T00:41:26;6.72;;;4.13;;
34505;SDS011;20748;42.632;23.198;2023-06-10T00:43:58;7.47;;;3.00;;
34505;SDS011;20748;42.632;23.198;2023-06-10T00:46:32;5.15;;;3.00;;
34505;SDS011;20748;42.632;23.198;2023-06-10T00:49:05;5.72;;;3.30;;
34505;SDS011;20748;42.632;23.198;2023-06-10T00:51:38;5.18;;;3.38;;
34505;SDS011;20748;42.632;23.198;2023-06-10T00:54:11;6.30;;;3.30;;
34505;SDS011;20748;42.632;23.198;2023-06-10T00:56:46;11.10;;;3.92;;
34505;SDS011;20748;42.632;23.198;2023-06-10T00:59:19;7.68;;;3.38;;
34505;SDS011;20748;42.632;23.198;2023-06-10T01:01:52;4.88;;;3.10;;
34505;SDS011;20748;42.632;23.198;2023-06-10T01:04:24;7.50;;;3.35;;
34505;SDS011;20748;42.632;23.198;2023-06-10T01:07:00;5.90;;;3.10;;
34505;SDS011;20748;42.632;23.198;2023-06-10T01:09:42;5.80;;;2.72;;
34505;SDS011;20748;42.632;23.198;2023-06-10T01:12:26;6.97;;;4.30;;
34505;SDS011;20748;42.632;23.198;2023-06-10T01:15:04;5.22;;;2.67;;
34505;SDS011;20748;42.632;23.198;2023-06-10T01:17:38;6.80;;;3.50;;
34505;SDS011;20748;42.632;23.198;2023-06-10T01:20:28;5.97;;;3.38;;
34505;SDS011;20748;42.632;23.198;2023-06-10T01:23:02;5.10;;;3.30;;
34505;SDS011;20748;42.632;23.198;2023-06-10T01:25:36;5.43;;;3.35;;
34505;SDS011;20748;42.632;23.198;2023-06-10T01:28:11;6.63;;;3.47;;
34505;SDS011;20748;42.632;23.198;2023-06-10T01:30:48;4.75;;;3.00;;
34505;SDS011;20748;42.632;23.198;2023-06-10T01:33:28;4.65;;;3.17;;
34505;SDS011;20748;42.632;23.198;2023-06-10T01:36:03;10.60;;;3.92;;
34505;SDS011;20748;42.632;23.198;2023-06-10T01:38:39;6.03;;;3.75;;
34505;SDS011;20748;42.632;23.198;2023-06-10T01:41:15;5.75;;;4.18;;
34505;SDS011;20748;42.632;23.198;2023-06-10T01:43:49;5.18;;;3.42;;
34505;SDS011;20748;42.632;23.198;2023-06-10T01:46:21;3.60;;;2.83;;
34505;SDS011;20748;42.632;23.198;2023-06-10T01:48:54;5.93;;;3.55;;
34505;SDS011;20748;42.632;23.198;2023-06-10T01:51:26;4.43;;;3.05;;
34505;SDS011;20748;42.632;23.198;2023-06-10T01:53:59;6.15;;;3.70;;
34505;SDS011;20748;42.632;23.198;2023-06-10T01:56:32;11.07;;;3.30;;
34505;SDS011;20748;42.632;23.198;2023-06-10T01:59:04;4.75;;;2.95;;
34505;SDS011;20748;42.632;23.198;2023-06-10T02:01:36;5.78;;;3.25;;
34505;SDS011;20748;42.632;23.198;2023-06-10T02:04:09;6.45;;;4.13;;
34505;SDS011;20748;42.632;23.198;2023-06-10T02:06:41;6.60;;;3.25;;
34505;SDS011;20748;42.632;23.198;2023-06-10T02:09:14;6.00;;;3.20;;
34505;SDS011;20748;42.632;23.198;2023-06-10T02:11:47;6.68;;;3.70;;
34505;SDS011;20748;42.632;23.198;2023-06-10T02:14:19;5.20;;;3.33;;
34505;SDS011;20748;42.632;23.198;2023-06-10T02:16:52;6.00;;;3.25;;
34505;SDS011;20748;42.632;23.198;2023-06-10T02:19:28;7.80;;;3.95;;
34505;SDS011;20748;42.632;23.198;2023-06-10T02:22:00;7.72;;;3.40;;
34505;SDS011;20748;42.632;23.198;2023-06-10T02:24:35;4.72;;;3.03;;
34505;SDS011;20748;42.632;23.198;2023-06-10T02:27:08;8.50;;;3.60;;
34505;SDS011;20748;42.632;23.198;2023-06-10T02:29:40;4.95;;;3.72;;
34505;SDS011;20748;42.632;23.198;2023-06-10T02:32:13;6.25;;;3.55;;
34505;SDS011;20748;42.632;23.198;2023-06-10T02:34:47;5.45;;;3.78;;
34505;SDS011;20748;42.632;23.198;2023-06-10T02:37:21;6.32;;;3.90;;
34505;SDS011;20748;42.632;23.198;2023-06-10T02:39:54;6.43;;;3.45;;
34505;SDS011;20748;42.632;23.198;2023-06-10T02:42:27;5.10;;;3.25;;
34505;SDS011;20748;42.632;23.198;2023-06-10T02:45:00;6.93;;;2.95;;
34505;SDS011;20748;42.632;23.198;2023-06-10T02:47:41;5.18;;;3.00;;
34505;SDS011;20748;42.632;23.198;2023-06-10T02:50:15;6.95;;;3.50;;
34505;SDS011;20748;42.632;23.198;2023-06-10T02:53:10;6.20;;;3.15;;
34505;SDS011;20748;42.632;23.198;2023-06-10T02:55:47;3.80;;;2.63;;
34505;SDS011;20748;42.632;23.198;2023-06-10T02:58:22;5.05;;;3.13;;
34505;SDS011;20748;42.632;23.198;2023-06-10T03:00:56;6.57;;;2.97;;
34505;SDS011;20748;42.632;23.198;2023-06-10T03:03:30;4.95;;;3.40;;
34505;SDS011;20748;42.632;23.198;2023-06-10T03:06:11;6.40;;;3.03;;
34505;SDS011;20748;42.632;23.198;2023-06-10T03:08:44;6.15;;;3.45;;
34505;SDS011;20748;42.632;23.198;2023-06-10T03:11:21;3.90;;;2.78;;
34505;SDS011;20748;42.632;23.198;2023-06-10T03:13:56;6.63;;;4.18;;
34505;SDS011;20748;42.632;23.198;2023-06-10T03:16:30;6.07;;;4.00;;
34505;SDS011;20748;42.632;23.198;2023-06-10T03:19:04;5.72;;;3.70;;
34505;SDS011;20748;42.632;23.198;2023-06-10T03:21:37;5.38;;;3.17;;
34505;SDS011;20748;42.632;23.198;2023-06-10T03:24:10;4.85;;;3.67;;
34505;SDS011;20748;42.632;23.198;2023-06-10T03:26:44;6.72;;;4.70;;
34505;SDS011;20748;42.632;23.198;2023-06-10T03:29:16;7.45;;;4.05;;
34505;SDS011;20748;42.632;23.198;2023-06-10T03:31:49;5.15;;;3.25;;
34505;SDS011;20748;42.632;23.198;2023-06-10T03:34:22;5.72;;;3.38;;
34505;SDS011;20748;42.632;23.198;2023-06-10T03:36:56;5.07;;;3.10;;
34505;SDS011;20748;42.632;23.198;2023-06-10T03:39:28;7.15;;;3.75;;
34505;SDS011;20748;42.632;23.198;2023-06-10T03:42:05;5.47;;;3.65;;
34505;SDS011;20748;42.632;23.198;2023-06-10T03:44:38;5.72;;;2.97;;
34505;SDS011;20748;42.632;23.198;2023-06-10T03:47:11;4.93;;;3.50;;
34505;SDS011;20748;42.632;23.198;2023-06-10T03:49:44;6.07;;;3.95;;
34505;SDS011;20748;42.632;23.198;2023-06-10T03:52:17;7.80;;;4.22;;
34505;SDS011;20748;42.632;23.198;2023-06-10T03:54:49;5.15;;;3.45;;
34505;SDS011;20748;42.632;23.198;2023-06-10T03:57:22;7.35;;;3.72;;
34505;SDS011;20748;42.632;23.198;2023-06-10T03:59:55;7.85;;;3.83;;
34505;SDS011;20748;42.632;23.198;2023-06-10T04:02:28;7.65;;;4.63;;
34505;SDS011;20748;42.632;23.198;2023-06-10T04:05:00;7.10;;;4.00;;
34505;SDS011;20748;42.632;23.198;2023-06-10T04:07:33;5.93;;;3.65;;
34505;SDS011;20748;42.632;23.198;2023-06-10T04:10:06;8.40;;;3.75;;
34505;SDS011;20748;42.632;23.198;2023-06-10T04:12:40;6.57;;;3.83;;
34505;SDS011;20748;42.632;23.198;2023-06-10T04:15:14;8.55;;;4.68;;
34505;SDS011;20748;42.632;23.198;2023-06-10T04:17:47;8.18;;;4.60;;
34505;SDS011;20748;42.632;23.198;2023-06-10T04:20:22;7.53;;;4.60;;
34505;SDS011;20748;42.632;23.198;2023-06-10T04:22:55;8.52;;;3.78;;
34505;SDS011;20748;42.632;23.198;2023-06-10T04:25:27;7.40;;;3.45;;
34505;SDS011;20748;42.632;23.198;2023-06-10T04:28:01;8.35;;;4.55;;
34505;SDS011;20748;42.632;23.198;2023-06-10T04:30:34;12.20;;;5.05;;
34505;SDS011;20748;42.632;23.198;2023-06-10T04:33:06;8.57;;;4.15;;
34505;SDS011;20748;42.632;23.198;2023-06-10T04:35:41;5.20;;;3.30;;
34505;SDS011;20748;42.632;23.198;2023-06-10T04:38:17;5.00;;;2.80;;
34505;SDS011;20748;42.632;23.198;2023-06-10T04:40:50;5.38;;;2.97;;
34505;SDS011;20748;42.632;23.198;2023-06-10T04:43:25;6.88;;;2.60;;
34505;SDS011;20748;42.632;23.198;2023-06-10T04:45:57;4.13;;;2.45;;
34505;SDS011;20748;42.632;23.198;2023-06-10T04:48:30;3.90;;;2.47;;
34505;SDS011;20748;42.632;23.198;2023-06-10T04:51:02;4.07;;;2.58;;
34505;SDS011;20748;42.632;23.198;2023-06-10T04:53:34;5.70;;;3.38;;
34505;SDS011;20748;42.632;23.198;2023-06-10T04:56:08;6.07;;;3.22;;
34505;SDS011;20748;42.632;23.198;2023-06-10T04:58:41;6.03;;;3.67;;
34505;SDS011;20748;42.632;23.198;2023-06-10T05:01:13;7.25;;;3.85;;
34505;SDS011;20748;42.632;23.198;2023-06-10T05:03:45;4.95;;;2.80;;
34505;SDS011;20748;42.632;23.198;2023-06-10T05:06:18;5.13;;;3.55;;
34505;SDS011;20748;42.632;23.198;2023-06-10T05:08:50;5.45;;;3.55;;
34505;SDS011;20748;42.632;23.198;2023-06-10T05:11:22;5.55;;;3.30;;
34505;SDS011;20748;42.632;23.198;2023-06-10T05:13:55;4.25;;;2.92;;
34505;SDS011;20748;42.632;23.198;2023-06-10T05:16:28;7.93;;;3.88;;
34505;SDS011;20748;42.632;23.198;2023-06-10T05:19:00;7.28;;;3.50;;
34505;SDS011;20748;42.632;23.198;2023-06-10T05:21:33;7.05;;;4.15;;
34505;SDS011;20748;42.632;23.198;2023-06-10T05:24:05;8.90;;;3.90;;
34505;SDS011;20748;42.632;23.198;2023-06-10T05:26:39;6.80;;;4.07;;
34505;SDS011;20748;42.632;23.198;2023-06-10T05:29:13;6.53;;;3.85;;
34505;SDS011;20748;42.632;23.198;2023-06-10T05:31:46;6.32;;;4.35;;
34505;SDS011;20748;42.632;23.198;2023-06-10T05:34:19;7.25;;;3.90;;
34505;SDS011;20748;42.632;23.198;2023-06-10T05:36:51;6.10;;;3.97;;
34505;SDS011;20748;42.632;23.198;2023-06-10T05:39:23;6.60;;;3.90;;
34505;SDS011;20748;42.632;23.198;2023-06-10T05:41:56;6.75;;;4.30;;
34505;SDS011;20748;42.632;23.198;2023-06-10T05:44:31;5.85;;;3.70;;
34505;SDS011;20748;42.632;23.198;2023-06-10T05:47:03;5.70;;;3.65;;
34505;SDS011;20748;42.632;23.198;2023-06-10T05:49:36;8.63;;;4.32;;
34505;SDS011;20748;42.632;23.198;2023-06-10T05:52:08;8.80;;;4.97;;
34505;SDS011;20748;42.632;23.198;2023-06-10T05:54:41;9.57;;;4.80;;
34505;SDS011;20748;42.632;23.198;2023-06-10T05:57:13;7.05;;;4.53;;
34505;SDS011;20748;42.632;23.198;2023-06-10T05:59:46;10.00;;;4.40;;
34505;SDS011;20748;42.632;23.198;2023-06-10T06:02:18;9.15;;;4.20;;
34505;SDS011;20748;42.632;23.198;2023-06-10T06:04:51;6.63;;;4.22;;
34505;SDS011;20748;42.632;23.198;2023-06-10T06:07:24;8.80;;;4.68;;
34505;SDS011;20748;42.632;23.198;2023-06-10T06:09:56;9.25;;;5.03;;
34505;SDS011;20748;42.632;23.198;2023-06-10T06:12:28;6.53;;;4.00;;
34505;SDS011;20748;42.632;23.198;2023-06-10T06:15:01;8.63;;;4.30;;
34505;SDS011;20748;42.632;23.198;2023-06-10T06:17:35;10.68;;;4.22;;
34505;SDS011;20748;42.632;23.198;2023-06-10T06:20:08;9.38;;;4.78;;
34505;SDS011;20748;42.632;23.198;2023-06-10T06:22:41;6.97;;;4.65;;
34505;SDS011;20748;42.632;23.198;2023-06-10T06:25:13;7.30;;;3.85;;
34505;SDS011;20748;42.632;23.198;2023-06-10T06:27:46;5.85;;;3.78;;
34505;SDS011;20748;42.632;23.198;2023-06-10T06:30:19;6.00;;;4.10;;
34505;SDS011;20748;42.632;23.198;2023-06-10T06:32:51;6.18;;;4.20;;
34505;SDS011;20748;42.632;23.198;2023-06-10T06:35:24;7.00;;;3.92;;
34505;SDS011;20748;42.632;23.198;2023-06-10T06:37:56;9.25;;;4.10;;
34505;SDS011;20748;42.632;23.198;2023-06-10T06:40:32;4.88;;;3.47;;
34505;SDS011;20748;42.632;23.198;2023-06-10T06:43:05;6.90;;;3.95;;
34505;SDS011;20748;42.632;23.198;2023-06-10T06:45:53;4.80;;;3.35;;
34505;SDS011;20748;42.632;23.198;2023-06-10T06:48:25;5.57;;;3.72;;
34505;SDS011;20748;42.632;23.198;2023-06-10T06:50:58;8.30;;;4.15;;
34505;SDS011;20748;42.632;23.198;2023-06-10T06:53:30;6.95;;;3.53;;
34505;SDS011;20748;42.632;23.198;2023-06-10T06:56:05;5.38;;;3.60;;
34505;SDS011;20748;42.632;23.198;2023-06-10T06:58:37;6.00;;;3.92;;
34505;SDS011;20748;42.632;23.198;2023-06-10T07:01:10;7.38;;;4.10;;
34505;SDS011;20748;42.632;23.198;2023-06-10T07:03:43;5.32;;;3.03;;
34505;SDS011;20748;42.632;23.198;2023-06-10T07:06:15;5.80;;;3.85;;
34505;SDS011;20748;42.632;23.198;2023-06-10T07:08:48;6.68;;;4.07;;
34505;SDS011;20748;42.632;23.198;2023-06-10T07:11:21;4.07;;;2.70;;
34505;SDS011;20748;42.632;23.198;2023-06-10T07:13:53;4.35;;;2.97;;
34505;SDS011;20748;42.632;23.198;2023-06-10T07:16:26;5.63;;;3.53;;
34505;SDS011;20748;42.632;23.198;2023-06-10T07:18:59;7.10;;;3.90;;
34505;SDS011;20748;42.632;23.198;2023-06-10T07:21:31;5.97;;;3.15;;
34505;SDS011;20748;42.632;23.198;2023-06-10T07:24:04;4.15;;;2.72;;
34505;SDS011;20748;42.632;23.198;2023-06-10T07:26:37;4.85;;;2.80;;
34505;SDS011;20748;42.632;23.198;2023-06-10T07:29:10;5.18;;;2.67;;
34505;SDS011;20748;42.632;23.198;2023-06-10T07:31:43;4.30;;;2.58;;
34505;SDS011;20748;42.632;23.198;2023-06-10T07:34:15;5.63;;;2.72;;
34505;SDS011;20748;42.632;23.198;2023-06-10T07:36:47;5.65;;;3.05;;
34505;SDS011;20748;42.632;23.198;2023-06-10T07:39:20;4.55;;;2.53;;
34505;SDS011;20748;42.632;23.198;2023-06-10T07:41:52;5.32;;;2.83;;
34505;SDS011;20748;42.632;23.198;2023-06-10T07:44:28;4.28;;;2.58;;
34505;SDS011;20748;42.632;23.198;2023-06-10T07:47:01;4.03;;;2.65;;
34505;SDS011;20748;42.632;23.198;2023-06-10T07:49:34;4.57;;;2.47;;
34505;SDS011;20748;42.632;23.198;2023-06-10T07:52:06;3.45;;;2.08;;
34505;SDS011;20748;42.632;23.198;2023-06-10T07:54:39;3.78;;;2.22;;
34505;SDS011;20748;42.632;23.198;2023-06-10T07:57:12;3.03;;;1.90;;
34505;SDS011;20748;42.632;23.198;2023-06-10T07:59:44;3.25;;;2.03;;
34505;SDS011;20748;42.632;23.198;2023-06-10T08:02:17;4.88;;;2.38;;
34505;SDS011;20748;42.632;23.198;2023-06-10T08:04:49;3.97;;;2.55;;
34505;SDS011;20748;42.632;23.198;2023-06-10T08:07:22;3.60;;;1.80;;
34505;SDS011;20748;42.632;23.198;2023-06-10T08:09:54;5.90;;;2.05;;
34505;SDS011;20748;42.632;23.198;2023-06-10T08:12:26;4.53;;;2.10;;
34505;SDS011;20748;42.632;23.198;2023-06-10T08:14:59;3.70;;;2.38;;
34505;SDS011;20748;42.632;23.198;2023-06-10T08:17:33;2.67;;;1.58;;
34505;SDS011;20748;42.632;23.198;2023-06-10T08:20:06;5.05;;;2.30;;
34505;SDS011;20748;42.632;23.198;2023-06-10T08:22:39;2.55;;;1.80;;
34505;SDS011;20748;42.632;23.198;2023-06-10T08:25:11;3.15;;;1.92;;
34505;SDS011;20748;42.632;23.198;2023-06-10T08:27:44;7.57;;;2.25;;
34505;SDS011;20748;42.632;23.198;2023-06-10T08:30:16;4.40;;;2.42;;
34505;SDS011;20748;42.632;23.198;2023-06-10T08:32:50;7.50;;;2.03;;
34505;SDS011;20748;42.632;23.198;2023-06-10T08:35:23;3.33;;;1.90;;
34505;SDS011;20748;42.632;23.198;2023-06-10T08:37:56;3.22;;;1.80;;
34505;SDS011;20748;42.632;23.198;2023-06-10T08:40:28;3.88;;;2.33;;
34505;SDS011;20748;42.632;23.198;2023-06-10T08:43:03;3.65;;;2.00;;
34505;SDS011;20748;42.632;23.198;2023-06-10T08:45:38;3.00;;;1.95;;
34505;SDS011;20748;42.632;23.198;2023-06-10T08:48:15;4.68;;;2.28;;
34505;SDS011;20748;42.632;23.198;2023-06-10T08:50:49;4.25;;;2.13;;
34505;SDS011;20748;42.632;23.198;2023-06-10T08:53:23;3.90;;;2.13;;
34505;SDS011;20748;42.632;23.198;2023-06-10T08:55:56;4.90;;;2.40;;
34505;SDS011;20748;42.632;23.198;2023-06-10T08:58:32;3.85;;;2.35;;
34505;SDS011;20748;42.632;23.198;2023-06-10T09:01:06;4.30;;;2.17;;
34505;SDS011;20748;42.632;23.198;2023-06-10T09:03:40;2.97;;;2.10;;
34505;SDS011;20748;42.632;23.198;2023-06-10T09:06:13;3.05;;;1.90;;
34505;SDS011;20748;42.632;23.198;2023-06-10T09:08:46;4.18;;;2.00;;
34505;SDS011;20748;42.632;23.198;2023-06-10T09:11:18;4.72;;;2.28;;
34505;SDS011;20748;42.632;23.198;2023-06-10T09:13:51;2.58;;;1.85;;
34505;SDS011;20748;42.632;23.198;2023-06-10T09:16:24;4.55;;;2.25;;
34505;SDS011;20748;42.632;23.198;2023-06-10T09:18:57;3.42;;;2.17;;
34505;SDS011;20748;42.632;23.198;2023-06-10T09:21:30;5.80;;;2.05;;
34505;SDS011;20748;42.632;23.198;2023-06-10T09:24:02;5.00;;;2.05;;
34505;SDS011;20748;42.632;23.198;2023-06-10T09:26:37;3.03;;;1.83;;
34505;SDS011;20748;42.632;23.198;2023-06-10T09:29:10;3.22;;;1.92;;
34505;SDS011;20748;42.632;23.198;2023-06-10T09:31:43;2.80;;;2.38;;
34505;SDS011;20748;42.632;23.198;2023-06-10T09:34:17;5.80;;;3.63;;
34505;SDS011;20748;42.632;23.198;2023-06-10T09:36:49;2.85;;;1.98;;
34505;SDS011;20748;42.632;23.198;2023-06-10T09:39:22;3.58;;;2.58;;
34505;SDS011;20748;42.632;23.198;2023-06-10T09:41:55;3.75;;;2.35;;
34505;SDS011;20748;42.632;23.198;2023-06-10T09:44:27;5.15;;;3.10;;
34505;SDS011;20748;42.632;23.198;2023-06-10T09:47:01;3.97;;;2.58;;
34505;SDS011;20748;42.632;23.198;2023-06-10T09:49:34;4.75;;;2.97;;
34505;SDS011;20748;42.632;23.198;2023-06-10T09:52:09;5.53;;;3.08;;
34505;SDS011;20748;42.632;23.198;2023-06-10T09:54:42;4.75;;;2.67;;
34505;SDS011;20748;42.632;23.198;2023-06-10T09:57:16;5.88;;;3.25;;
34505;SDS011;20748;42.632;23.198;2023-06-10T09:59:51;6.20;;;2.63;;
34505;SDS011;20748;42.632;23.198;2023-06-10T10:02:24;3.47;;;2.35;;
34505;SDS011;20748;42.632;23.198;2023-06-10T10:05:02;3.33;;;2.28;;
34505;SDS011;20748;42.632;23.198;2023-06-10T10:07:35;6.07;;;3.60;;
34505;SDS011;20748;42.632;23.198;2023-06-10T10:10:08;4.53;;;2.95;;
34505;SDS011;20748;42.632;23.198;2023-06-10T10:12:42;3.22;;;2.40;;
34505;SDS011;20748;42.632;23.198;2023-06-10T10:15:15;4.38;;;2.00;;
34505;SDS011;20748;42.632;23.198;2023-06-10T10:17:49;3.42;;;2.38;;
34505;SDS011;20748;42.632;23.198;2023-06-10T10:20:27;4.05;;;2.13;;
34505;SDS011;20748;42.632;23.198;2023-06-10T10:23:03;4.50;;;2.88;;
34505;SDS011;20748;42.632;23.198;2023-06-10T10:25:38;7.47;;;2.65;;
34505;SDS011;20748;42.632;23.198;2023-06-10T10:28:12;6.03;;;2.58;;
34505;SDS011;20748;42.632;23.198;2023-06-10T10:30:48;4.20;;;2.72;;
34505;SDS011;20748;42.632;23.198;2023-06-10T10:33:22;3.92;;;2.85;;
34505;SDS011;20748;42.632;23.198;2023-06-10T10:36:04;4.00;;;2.88;;
34505;SDS011;20748;42.632;23.198;2023-06-10T10:38:39;6.90;;;3.10;;
34505;SDS011;20748;42.632;23.198;2023-06-10T10:41:12;3.78;;;2.75;;
34505;SDS011;20748;42.632;23.198;2023-06-10T10:43:46;5.70;;;3.10;;
34505;SDS011;20748;42.632;23.198;2023-06-10T10:46:19;6.18;;;2.97;;
34505;SDS011;20748;42.632;23.198;2023-06-10T10:48:52;5.13;;;2.67;;
34505;SDS011;20748;42.632;23.198;2023-06-10T10:51:26;4.95;;;2.90;;
34505;SDS011;20748;42.632;23.198;2023-06-10T10:54:12;4.18;;;2.90;;
34505;SDS011;20748;42.632;23.198;2023-06-10T10:59:43;6.80;;;2.72;;
34505;SDS011;20748;42.632;23.198;2023-06-10T11:02:16;4.90;;;3.17;;
34505;SDS011;20748;42.632;23.198;2023-06-10T11:04:50;3.80;;;2.40;;
34505;SDS011;20748;42.632;23.198;2023-06-10T11:07:24;4.05;;;2.30;;
34505;SDS011;20748;42.632;23.198;2023-06-10T11:09:57;4.65;;;2.78;;
34505;SDS011;20748;42.632;23.198;2023-06-10T11:12:41;4.15;;;2.83;;
34505;SDS011;20748;42.632;23.198;2023-06-10T11:15:20;5.13;;;2.47;;
34505;SDS011;20748;42.632;23.198;2023-06-10T11:18:07;3.17;;;2.03;;
34505;SDS011;20748;42.632;23.198;2023-06-10T11:23:40;3.40;;;2.05;;
34505;SDS011;20748;42.632;23.198;2023-06-10T11:26:15;3.55;;;2.25;;
34505;SDS011;20748;42.632;23.198;2023-06-10T11:29:03;4.35;;;2.55;;
34505;SDS011;20748;42.632;23.198;2023-06-10T11:31:48;5.75;;;2.95;;
34505;SDS011;20748;42.632;23.198;2023-06-10T11:34:22;2.78;;;1.85;;
34505;SDS011;20748;42.632;23.198;2023-06-10T11:36:56;2.75;;;1.98;;
34505;SDS011;20748;42.632;23.198;2023-06-10T11:39:29;3.60;;;2.50;;
34505;SDS011;20748;42.632;23.198;2023-06-10T11:42:03;3.83;;;2.40;;
34505;SDS011;20748;42.632;23.198;2023-06-10T11:44:36;3.35;;;2.38;;
34505;SDS011;20748;42.632;23.198;2023-06-10T11:47:09;3.97;;;2.40;;
34505;SDS011;20748;42.632;23.198;2023-06-10T11:49:43;4.93;;;2.50;;
34505;SDS011;20748;42.632;23.198;2023-06-10T11:52:23;3.53;;;2.17;;
34505;SDS011;20748;42.632;23.198;2023-06-10T11:54:59;3.63;;;2.03;;
34505;SDS011;20748;42.632;23.198;2023-06-10T11:57:33;5.75;;;2.50;;
34505;SDS011;20748;42.632;23.198;2023-06-10T12:00:07;7.38;;;2.60;;
34505;SDS011;20748;42.632;23.198;2023-06-10T12:02:42;4.07;;;2.50;;
34505;SDS011;20748;42.632;23.198;2023-06-10T12:05:15;4.32;;;2.35;;
34505;SDS011;20748;42.632;23.198;2023-06-10T12:07:49;3.88;;;2.50;;
34505;SDS011;20748;42.632;23.198;2023-06-10T12:10:41;4.40;;;2.72;;
34505;SDS011;20748;42.632;23.198;2023-06-10T12:13:13;5.90;;;2.42;;
34505;SDS011;20748;42.632;23.198;2023-06-10T12:15:46;4.15;;;2.65;;
34505;SDS011;20748;42.632;23.198;2023-06-10T12:18:19;4.82;;;2.55;;
34505;SDS011;20748;42.632;23.198;2023-06-10T12:20:53;3.92;;;2.63;;
34505;SDS011;20748;42.632;23.198;2023-06-10T12:23:25;5.50;;;2.67;;
34505;SDS011;20748;42.632;23.198;2023-06-10T12:25:59;4.10;;;2.20;;
34505;SDS011;20748;42.632;23.198;2023-06-10T12:28:32;5.70;;;3.05;;
34505;SDS011;20748;42.632;23.198;2023-06-10T12:31:07;4.68;;;2.88;;
34505;SDS011;20748;42.632;23.198;2023-06-10T12:33:40;3.13;;;2.15;;
34505;SDS011;20748;42.632;23.198;2023-06-10T12:36:15;3.60;;;2.42;;
34505;SDS011;20748;42.632;23.198;2023-06-10T12:38:49;5.20;;;2.60;;
34505;SDS011;20748;42.632;23.198;2023-06-10T12:41:22;9.93;;;2.65;;
34505;SDS011;20748;42.632;23.198;2023-06-10T12:43:55;5.65;;;2.88;;
34505;SDS011;20748;42.632;23.198;2023-06-10T12:46:35;4.45;;;2.53;;
34505;SDS011;20748;42.632;23.198;2023-06-10T12:49:08;4.47;;;2.60;;
34505;SDS011;20748;42.632;23.198;2023-06-10T12:51:50;3.78;;;2.42;;
34505;SDS011;20748;42.632;23.198;2023-06-10T12:54:22;3.75;;;2.28;;
34505;SDS011;20748;42.632;23.198;2023-06-10T12:56:55;4.93;;;2.78;;
34505;SDS011;20748;42.632;23.198;2023-06-10T12:59:28;5.38;;;2.40;;
34505;SDS011;20748;42.632;23.198;2023-06-10T13:02:00;3.70;;;2.80;;
34505;SDS011;20748;42.632;23.198;2023-06-10T13:04:33;4.38;;;2.13;;
34505;SDS011;20748;42.632;23.198;2023-06-10T13:07:06;3.88;;;2.33;;
34505;SDS011;20748;42.632;23.198;2023-06-10T13:09:39;4.72;;;2.50;;
34505;SDS011;20748;42.632;23.198;2023-06-10T13:12:12;4.35;;;2.10;;
34505;SDS011;20748;42.632;23.198;2023-06-10T13:14:48;3.95;;;2.42;;
34505;SDS011;20748;42.632;23.198;2023-06-10T13:17:20;3.97;;;2.60;;
34505;SDS011;20748;42.632;23.198;2023-06-10T13:19:52;4.55;;;2.17;;
34505;SDS011;20748;42.632;23.198;2023-06-10T13:22:25;3.85;;;2.28;;
34505;SDS011;20748;42.632;23.198;2023-06-10T13:24:58;4.97;;;2.70;;
34505;SDS011;20748;42.632;23.198;2023-06-10T13:27:32;6.30;;;2.53;;
34505;SDS011;20748;42.632;23.198;2023-06-10T13:30:05;3.15;;;2.20;;
34505;SDS011;20748;42.632;23.198;2023-06-10T13:32:39;3.60;;;2.05;;
34505;SDS011;20748;42.632;23.198;2023-06-10T13:35:11;3.00;;;2.30;;
34505;SDS011;20748;42.632;23.198;2023-06-10T13:37:44;4.45;;;2.35;;
34505;SDS011;20748;42.632;23.198;2023-06-10T13:40:16;3.10;;;1.85;;
34505;SDS011;20748;42.632;23.198;2023-06-10T13:42:51;3.13;;;1.90;;
34505;SDS011;20748;42.632;23.198;2023-06-10T13:45:25;4.55;;;2.58;;
34505;SDS011;20748;42.632;23.198;2023-06-10T13:47:58;4.47;;;2.45;;
34505;SDS011;20748;42.632;23.198;2023-06-10T13:50:30;3.30;;;1.90;;
34505;SDS011;20748;42.632;23.198;2023-06-10T13:53:02;4.03;;;2.00;;
34505;SDS011;20748;42.632;23.198;2023-06-10T13:55:36;3.63;;;2.03;;
34505;SDS011;20748;42.632;23.198;2023-06-10T13:58:09;3.92;;;2.75;;
34505;SDS011;20748;42.632;23.198;2023-06-10T14:00:41;3.88;;;2.70;;
34505;SDS011;20748;42.632;23.198;2023-06-10T14:03:13;5.15;;;2.65;;
34505;SDS011;20748;42.632;23.198;2023-06-10T14:05:46;6.15;;;2.50;;
34505;SDS011;20748;42.632;23.198;2023-06-10T14:08:18;4.35;;;2.00;;
34505;SDS011;20748;42.632;23.198;2023-06-10T14:10:52;4.05;;;2.15;;
34505;SDS011;20748;42.632;23.198;2023-06-10T14:13:25;4.45;;;2.60;;
34505;SDS011;20748;42.632;23.198;2023-06-10T14:15:57;5.88;;;2.53;;
34505;SDS011;20748;42.632;23.198;2023-06-10T14:18:34;4.55;;;2.60;;
34505;SDS011;20748;42.632;23.198;2023-06-10T14:21:06;4.78;;;2.97;;
34505;SDS011;20748;42.632;23.198;2023-06-10T14:23:38;2.65;;;1.80;;
34505;SDS011;20748;42.632;23.198;2023-06-10T14:26:11;4.65;;;2.28;;
34505;SDS011;20748;42.632;23.198;2023-06-10T14:28:44;5.75;;;2.60;;
34505;SDS011;20748;42.632;23.198;2023-06-10T14:31:16;6.10;;;3.00;;
34505;SDS011;20748;42.632;23.198;2023-06-10T14:33:49;4.35;;;2.72;;
34505;SDS011;20748;42.632;23.198;2023-06-10T14:36:21;4.28;;;2.40;;
34505;SDS011;20748;42.632;23.198;2023-06-10T14:38:54;3.92;;;2.45;;
34505;SDS011;20748;42.632;23.198;2023-06-10T14:41:26;4.38;;;2.90;;
34505;SDS011;20748;42.632;23.198;2023-06-10T14:43:59;4.25;;;2.55;;
34505;SDS011;20748;42.632;23.198;2023-06-10T14:46:32;4.30;;;3.00;;
34505;SDS011;20748;42.632;23.198;2023-06-10T14:49:04;6.70;;;2.50;;
34505;SDS011;20748;42.632;23.198;2023-06-10T14:51:36;4.05;;;2.38;;
34505;SDS011;20748;42.632;23.198;2023-06-10T14:54:09;5.57;;;2.15;;
34505;SDS011;20748;42.632;23.198;2023-06-10T14:56:41;5.05;;;2.30;;
34505;SDS011;20748;42.632;23.198;2023-06-10T14:59:14;5.30;;;3.03;;
34505;SDS011;20748;42.632;23.198;2023-06-10T15:01:46;3.53;;;2.25;;
34505;SDS011;20748;42.632;23.198;2023-06-10T15:04:19;3.72;;;2.22;;
34505;SDS011;20748;42.632;23.198;2023-06-10T15:06:55;4.55;;;2.55;;
34505;SDS011;20748;42.632;23.198;2023-06-10T15:09:28;6.22;;;2.70;;
34505;SDS011;20748;42.632;23.198;2023-06-10T15:12:00;6.53;;;3.15;;
34505;SDS011;20748;42.632;23.198;2023-06-10T15:14:35;5.15;;;2.55;;
34505;SDS011;20748;42.632;23.198;2023-06-10T15:17:08;5.25;;;2.28;;